createdAt,value
2018-05-06T00:00:10.102Z,66.37
2018-05-06T00:02:38.451Z,66.71
2018-05-06T00:05:06.797Z,65.96
2018-05-06T00:07:35.114Z,67.28
2018-05-06T00:10:03.445Z,67.37
2018-05-06T00:12:31.753Z,66.78
2018-05-06T00:15:00.093Z,66.94
2018-05-06T00:17:28.442Z,66.75
2018-05-06T00:19:56.787Z,67.26
2018-05-06T00:22:25.095Z,66.95
2018-05-06T00:24:53.445Z,67.13
2018-05-06T00:27:21.860Z,67.31
2018-05-06T00:29:50.188Z,67.29
2018-05-06T00:32:18.608Z,67.59
2018-05-06T00:34:46.990Z,67.11
2018-05-06T00:37:15.376Z,67.41
2018-05-06T00:39:43.733Z,67.21
2018-05-06T00:42:12.062Z,67.55
2018-05-06T00:44:40.806Z,67.63
2018-05-06T00:47:09.229Z,67.56
2018-05-06T00:49:37.569Z,68.19
2018-05-06T00:52:06.029Z,68.04
2018-05-06T00:54:44.264Z,68.36
2018-05-06T00:57:12.603Z,69.43
2018-05-06T00:59:41.012Z,69.00
2018-05-06T01:02:09.351Z,69.06
2018-05-06T01:04:37.766Z,69.08
2018-05-06T01:07:06.117Z,69.36
2018-05-06T01:09:34.568Z,69.29
2018-05-06T01:12:02.906Z,69.59
2018-05-06T01:14:31.224Z,69.30
2018-05-06T01:16:59.565Z,69.77
2018-05-06T01:19:27.889Z,69.53
2018-05-06T01:21:56.269Z,69.70
2018-05-06T01:24:24.589Z,69.81
2018-05-06T01:26:52.920Z,70.16
2018-05-06T01:29:21.251Z,69.76
2018-05-06T01:31:49.576Z,69.91
2018-05-06T01:34:17.916Z,69.70
2018-05-06T01:36:46.241Z,70.01
2018-05-06T01:39:14.669Z,69.94
2018-05-06T01:41:42.993Z,70.13
2018-05-06T01:44:11.404Z,69.95
2018-05-06T01:46:39.717Z,70.17
2018-05-06T01:49:08.057Z,70.46
2018-05-06T01:51:36.456Z,70.27
2018-05-06T01:54:04.833Z,70.04
2018-05-06T01:56:33.243Z,70.17
2018-05-06T01:59:01.588Z,70.16
2018-05-06T02:01:29.999Z,70.04
2018-05-06T02:03:58.319Z,70.50
2018-05-06T02:06:26.628Z,70.58
2018-05-06T02:08:54.983Z,70.52
2018-05-06T02:11:23.384Z,70.36
2018-05-06T02:13:51.689Z,70.73
2018-05-06T02:16:20.032Z,70.83
2018-05-06T02:18:48.408Z,70.40
2018-05-06T02:21:16.781Z,70.74
2018-05-06T02:23:45.160Z,71.07
2018-05-06T02:26:13.625Z,71.31
2018-05-06T02:28:41.928Z,71.20
2018-05-06T02:31:10.294Z,71.20
2018-05-06T02:33:38.636Z,71.38
2018-05-06T02:36:07.062Z,71.78
2018-05-06T02:38:35.375Z,71.85
2018-05-06T02:41:03.737Z,71.68
2018-05-06T02:43:32.050Z,71.71
2018-05-06T02:46:00.464Z,72.96
2018-05-06T02:48:28.806Z,72.61
2018-05-06T02:50:57.213Z,72.46
2018-05-06T02:53:25.665Z,72.35
2018-05-06T02:55:54.083Z,72.58
2018-05-06T02:58:22.456Z,73.09
2018-05-06T03:00:50.828Z,72.85
2018-05-06T03:03:19.214Z,72.71
2018-05-06T03:05:47.597Z,72.56
2018-05-06T03:08:15.968Z,72.95
2018-05-06T03:10:44.350Z,73.10
2018-05-06T03:13:12.728Z,73.04
2018-05-06T03:15:41.052Z,73.43
2018-05-06T03:18:09.400Z,73.35
2018-05-06T03:20:37.721Z,72.92
2018-05-06T03:23:06.180Z,73.06
2018-05-06T03:25:34.522Z,72.75
2018-05-06T03:28:02.897Z,73.49
2018-05-06T03:30:31.233Z,73.28
2018-05-06T03:32:59.561Z,73.08
2018-05-06T03:35:27.893Z,73.43
2018-05-06T03:37:56.202Z,73.48
2018-05-06T03:40:24.576Z,73.44
2018-05-06T03:42:52.908Z,73.82
2018-05-06T03:45:21.345Z,73.93
2018-05-06T03:47:49.727Z,73.59
2018-05-06T03:50:18.060Z,73.05
2018-05-06T03:52:46.476Z,73.54
2018-05-06T03:55:14.828Z,73.16
2018-05-06T03:57:55.126Z,73.19
2018-05-06T04:00:46.264Z,72.98
2018-05-06T04:03:14.608Z,72.32
2018-05-06T04:05:43.010Z,72.13
2018-05-06T04:08:11.332Z,71.70
2018-05-06T04:10:39.740Z,72.07
2018-05-06T04:13:08.055Z,71.25
2018-05-06T04:15:36.400Z,71.28
2018-05-06T04:18:04.733Z,70.75
2018-05-06T04:20:33.150Z,70.40
2018-05-06T04:23:01.465Z,69.91
2018-05-06T04:25:29.805Z,69.35
2018-05-06T04:27:58.125Z,69.71
2018-05-06T04:30:26.432Z,69.75
2018-05-06T04:32:54.773Z,69.56
2018-05-06T04:35:23.085Z,69.33
2018-05-06T04:37:51.437Z,68.90
2018-05-06T04:40:19.804Z,68.91
2018-05-06T04:42:48.237Z,68.38
2018-05-06T04:45:16.560Z,68.05
2018-05-06T04:47:44.905Z,67.96
2018-05-06T04:50:14.451Z,68.44
2018-05-06T04:52:42.876Z,67.81
2018-05-06T04:55:11.190Z,67.75
2018-05-06T04:57:39.540Z,67.82
2018-05-06T05:00:07.856Z,67.72
2018-05-06T05:02:36.202Z,67.83
2018-05-06T05:05:04.522Z,67.91
2018-05-06T05:07:32.886Z,68.06
2018-05-06T05:10:01.194Z,67.90
2018-05-06T05:12:29.598Z,67.94
2018-05-06T05:14:57.981Z,68.64
2018-05-06T05:17:26.366Z,68.14
2018-05-06T05:19:54.742Z,67.47
2018-05-06T05:22:23.078Z,67.26
2018-05-06T05:24:51.447Z,66.73
2018-05-06T05:27:19.769Z,67.21
2018-05-06T05:29:48.188Z,66.57
2018-05-06T05:32:16.501Z,66.32
2018-05-06T05:34:44.907Z,65.92
2018-05-06T05:37:13.280Z,65.95
2018-05-06T05:39:41.616Z,65.77
2018-05-06T05:42:09.956Z,65.35
2018-05-06T05:44:38.272Z,65.45
2018-05-06T05:47:06.592Z,64.58
2018-05-06T05:49:34.935Z,64.83
2018-05-06T05:52:03.253Z,64.31
2018-05-06T05:54:31.742Z,64.21
2018-05-06T05:57:00.066Z,64.54
2018-05-06T05:59:28.403Z,63.81
2018-05-06T06:01:56.717Z,64.14
2018-05-06T06:04:25.017Z,63.72
2018-05-06T06:06:53.422Z,63.65
2018-05-06T06:09:21.753Z,63.27
2018-05-06T06:11:50.081Z,63.08
2018-05-06T06:14:18.520Z,63.10
2018-05-06T06:16:46.863Z,62.62
2018-05-06T06:19:15.565Z,61.69
2018-05-06T06:21:43.982Z,61.64
2018-05-06T06:24:12.307Z,61.43
2018-05-06T06:26:40.652Z,61.20
2018-05-06T06:29:08.974Z,61.04
2018-05-06T06:31:37.399Z,60.76
2018-05-06T06:34:05.780Z,60.50
2018-05-06T06:36:34.275Z,60.13
2018-05-06T06:39:02.654Z,59.38
2018-05-06T06:41:30.998Z,58.52
2018-05-06T06:43:59.397Z,58.70
2018-05-06T06:46:27.765Z,58.55
2018-05-06T06:48:56.430Z,58.04
2018-05-06T06:51:24.833Z,58.22
2018-05-06T06:53:53.228Z,57.93
2018-05-06T06:56:21.569Z,57.63
2018-05-06T06:58:49.974Z,57.09
2018-05-06T07:01:18.306Z,58.47
2018-05-06T07:03:46.635Z,57.59
2018-05-06T07:06:15.013Z,56.23
2018-05-06T07:08:43.332Z,55.36
2018-05-06T07:11:11.649Z,54.65
2018-05-06T07:13:40.768Z,55.43
2018-05-06T07:16:09.162Z,55.13
2018-05-06T07:18:37.474Z,54.36
2018-05-06T07:21:05.781Z,53.48
2018-05-06T07:23:34.163Z,52.98
2018-05-06T07:26:02.481Z,52.34
2018-05-06T07:28:30.849Z,52.11
2018-05-06T07:30:59.169Z,51.96
2018-05-06T07:33:27.500Z,51.33
2018-05-06T07:35:55.872Z,51.07
2018-05-06T07:38:24.274Z,51.84
2018-05-06T07:40:52.633Z,50.73
2018-05-06T07:43:20.944Z,50.02
2018-05-06T07:45:49.386Z,49.57
2018-05-06T07:48:17.742Z,48.92
2018-05-06T07:50:46.126Z,48.17
2018-05-06T07:53:14.441Z,47.83
2018-05-06T07:55:42.773Z,47.32
2018-05-06T07:58:11.097Z,47.13
2018-05-06T08:00:39.430Z,46.91
2018-05-06T08:03:07.811Z,46.63
2018-05-06T08:05:36.151Z,45.98
2018-05-06T08:08:04.540Z,45.73
2018-05-06T08:10:32.874Z,45.79
2018-05-06T08:13:01.185Z,45.68
2018-05-06T08:15:29.522Z,44.96
2018-05-06T08:17:57.883Z,45.20
2018-05-06T08:20:26.245Z,45.48
2018-05-06T08:22:54.625Z,46.07
2018-05-06T08:25:23.009Z,46.07
2018-05-06T08:27:51.312Z,45.88
2018-05-06T08:30:19.652Z,45.82
2018-05-06T08:32:48.013Z,45.74
2018-05-06T08:35:16.415Z,46.45
2018-05-06T08:37:44.806Z,46.30
2018-05-06T08:40:13.122Z,45.89
2018-05-06T08:42:41.466Z,46.10
2018-05-06T08:45:09.842Z,45.82
2018-05-06T08:47:38.228Z,46.22
2018-05-06T08:50:06.527Z,45.30
2018-05-06T08:52:34.953Z,44.86
2018-05-06T08:55:03.261Z,45.09
2018-05-06T08:57:31.581Z,45.59
2018-05-06T08:59:59.914Z,45.46
2018-05-06T09:02:28.284Z,45.03
2018-05-06T09:04:56.597Z,45.24
2018-05-06T09:07:24.926Z,44.75
2018-05-06T09:09:53.327Z,45.31
2018-05-06T09:12:21.635Z,43.84
2018-05-06T09:14:50.065Z,43.68
2018-05-06T09:17:18.390Z,44.18
2018-05-06T09:19:46.791Z,43.39
2018-05-06T09:22:15.066Z,44.07
2018-05-06T09:24:43.394Z,43.65
2018-05-06T09:27:11.854Z,43.61
2018-05-06T09:29:40.184Z,43.05
2018-05-06T09:32:08.525Z,42.16
2018-05-06T09:34:36.862Z,42.00
2018-05-06T09:37:05.173Z,41.87
2018-05-06T09:39:33.501Z,41.05
2018-05-06T09:42:01.807Z,41.49
2018-05-06T09:44:30.137Z,41.55
2018-05-06T09:46:58.449Z,40.58
2018-05-06T09:49:26.894Z,40.36
2018-05-06T09:51:55.192Z,40.50
2018-05-06T09:54:23.556Z,39.71
2018-05-06T09:56:51.980Z,39.92
2018-05-06T09:59:20.345Z,40.00
2018-05-06T10:01:48.749Z,39.30
2018-05-06T10:04:17.124Z,38.73
2018-05-06T10:06:45.467Z,38.80
2018-05-06T10:09:13.773Z,38.45
2018-05-06T10:11:42.145Z,38.17
2018-05-06T10:14:10.472Z,37.75
2018-05-06T10:16:38.837Z,37.97
2018-05-06T10:19:07.158Z,38.06
2018-05-06T10:21:35.495Z,37.85
2018-05-06T10:24:03.801Z,38.43
2018-05-06T10:26:32.129Z,37.84
2018-05-06T10:29:00.492Z,36.45
2018-05-06T10:31:28.832Z,36.16
2018-05-06T10:33:57.143Z,36.07
2018-05-06T10:36:25.518Z,36.94
2018-05-06T10:38:53.930Z,36.99
2018-05-06T10:41:22.263Z,36.29
2018-05-06T10:43:50.581Z,36.53
2018-05-06T10:46:18.934Z,36.46
2018-05-06T10:48:47.253Z,36.92
2018-05-06T10:51:15.591Z,36.76
2018-05-06T10:53:43.922Z,36.48
2018-05-06T10:56:12.249Z,35.70
2018-05-06T10:58:40.567Z,35.69
2018-05-06T11:01:09.000Z,35.20
2018-05-06T11:03:37.316Z,35.85
2018-05-06T11:06:05.616Z,34.68
2018-05-06T11:08:34.320Z,34.92
2018-05-06T11:11:02.637Z,34.55
2018-05-06T11:13:31.045Z,33.96
2018-05-06T11:15:59.376Z,33.93
2018-05-06T11:18:27.752Z,33.93
2018-05-06T11:20:56.068Z,33.51
2018-05-06T11:23:24.550Z,33.83
2018-05-06T11:25:52.858Z,33.52
2018-05-06T11:28:21.273Z,33.19
2018-05-06T11:30:49.573Z,33.08
2018-05-06T11:33:18.053Z,32.04
2018-05-06T11:35:46.398Z,31.49
2018-05-06T11:38:14.829Z,31.94
2018-05-06T11:40:43.198Z,31.25
2018-05-06T11:43:11.574Z,31.51
2018-05-06T11:45:39.870Z,29.80
2018-05-06T11:48:08.283Z,30.78
2018-05-06T11:50:36.539Z,29.64
2018-05-06T11:53:04.984Z,30.11
2018-05-06T11:55:33.319Z,29.06
2018-05-06T11:58:01.626Z,28.45
2018-05-06T12:00:29.981Z,28.03
2018-05-06T12:02:58.362Z,28.13
2018-05-06T12:05:26.698Z,27.42
2018-05-06T12:07:55.007Z,27.62
2018-05-06T12:10:23.332Z,27.03
2018-05-06T12:12:51.673Z,26.12
2018-05-06T12:15:20.009Z,25.70
2018-05-06T12:17:48.828Z,25.11
2018-05-06T12:20:17.157Z,25.03
2018-05-06T12:22:45.482Z,24.18
2018-05-06T12:25:13.906Z,23.85
2018-05-06T12:27:42.196Z,24.40
2018-05-06T12:30:10.532Z,24.67
2018-05-06T12:32:38.895Z,24.04
2018-05-06T12:35:07.266Z,22.79
2018-05-06T12:37:35.594Z,23.38
2018-05-06T12:40:03.934Z,23.35
2018-05-06T12:42:32.241Z,22.79
2018-05-06T12:45:00.550Z,22.69
2018-05-06T12:47:28.879Z,22.65
2018-05-06T12:49:57.229Z,23.18
2018-05-06T12:52:25.691Z,23.29
2018-05-06T12:54:53.993Z,23.89
2018-05-06T12:57:22.416Z,22.06
2018-05-06T12:59:50.859Z,21.35
2018-05-06T13:02:19.287Z,21.82
2018-05-06T13:04:47.590Z,22.77
2018-05-06T13:07:15.912Z,21.86
2018-05-06T13:09:44.224Z,22.55
2018-05-06T13:12:12.584Z,21.76
2018-05-06T13:14:40.877Z,21.97
2018-05-06T13:17:09.213Z,21.81
2018-05-06T13:19:37.522Z,20.68
2018-05-06T13:22:05.858Z,21.18
2018-05-06T13:24:34.174Z,20.88
2018-05-06T13:27:02.511Z,20.84
2018-05-06T13:29:30.825Z,21.55
2018-05-06T13:31:59.177Z,21.67
2018-05-06T13:34:27.488Z,19.81
2018-05-06T13:36:55.800Z,20.63
2018-05-06T13:39:24.200Z,19.94
2018-05-06T13:41:52.511Z,19.50
2018-05-06T13:44:20.945Z,19.53
2018-05-06T13:46:49.278Z,20.33
2018-05-06T13:49:17.733Z,21.01
2018-05-06T13:51:46.032Z,21.18
2018-05-06T13:54:14.361Z,20.74
2018-05-06T13:56:42.748Z,20.76
2018-05-06T13:59:11.084Z,19.79
2018-05-06T14:01:39.404Z,19.76
2018-05-06T14:04:07.733Z,18.94
2018-05-06T14:06:36.146Z,19.46
2018-05-06T14:09:04.489Z,18.86
2018-05-06T14:11:32.811Z,19.58
2018-05-06T14:14:01.142Z,20.68
2018-05-06T14:16:29.457Z,19.64
2018-05-06T14:18:57.797Z,18.89
2018-05-06T14:21:26.112Z,19.43
2018-05-06T14:23:54.530Z,19.87
2018-05-06T14:26:22.856Z,19.50
2018-05-06T14:28:51.244Z,18.91
2018-05-06T14:31:19.626Z,19.19
2018-05-06T14:33:47.944Z,17.37
2018-05-06T14:36:16.277Z,18.05
2018-05-06T14:38:44.596Z,17.54
2018-05-06T14:41:12.930Z,17.43
2018-05-06T14:43:41.307Z,17.71
2018-05-06T14:49:04.676Z,17.85
2018-05-06T14:51:32.985Z,17.54
2018-05-06T14:54:01.338Z,16.39
2018-05-06T14:56:29.660Z,16.23
2018-05-06T14:58:57.969Z,16.60
2018-05-06T15:01:26.315Z,16.15
2018-05-06T15:03:54.628Z,16.29
2018-05-06T15:06:22.976Z,15.71
2018-05-06T15:08:51.297Z,15.47
2018-05-06T15:11:19.715Z,16.00
2018-05-06T15:13:48.022Z,16.11
2018-05-06T15:16:16.458Z,14.95
2018-05-06T15:18:44.812Z,14.69
2018-05-06T15:21:13.184Z,15.09
2018-05-06T15:23:41.449Z,15.62
2018-05-06T15:26:09.785Z,14.13
2018-05-06T15:28:38.101Z,14.07
2018-05-06T15:31:06.509Z,13.32
2018-05-06T15:33:34.841Z,13.89
2018-05-06T15:36:03.178Z,13.51
2018-05-06T15:38:31.492Z,13.39
2018-05-06T15:40:59.800Z,12.98
2018-05-06T15:43:28.152Z,12.55
2018-05-06T15:45:56.440Z,13.04
2018-05-06T15:48:24.782Z,12.66
2018-05-06T15:50:53.100Z,12.24
2018-05-06T15:53:21.508Z,13.37
2018-05-06T15:55:49.997Z,12.56
2018-05-06T15:58:18.348Z,12.41
2018-05-06T16:00:46.743Z,12.35
2018-05-06T16:03:26.891Z,12.14
2018-05-06T16:05:55.317Z,11.56
2018-05-06T16:08:23.641Z,12.54
2018-05-06T16:10:51.965Z,12.49
2018-05-06T16:13:20.295Z,12.75
2018-05-06T16:15:48.634Z,12.91
2018-05-06T16:18:17.061Z,13.14
2018-05-06T16:20:45.376Z,12.55
2018-05-06T16:23:13.696Z,13.70
2018-05-06T16:25:42.004Z,12.83
2018-05-06T16:28:10.369Z,12.39
2018-05-06T16:30:38.688Z,13.19
2018-05-06T16:33:07.172Z,11.95
2018-05-06T16:35:35.477Z,12.66
2018-05-06T16:38:03.897Z,12.24
2018-05-06T16:40:32.281Z,13.34
2018-05-06T16:43:00.593Z,12.69
2018-05-06T16:45:28.957Z,12.76
2018-05-06T16:47:57.301Z,12.78
2018-05-06T16:50:25.808Z,12.51
2018-05-06T16:52:54.094Z,13.04
2018-05-06T21:59:57.111Z,39.69
2018-05-06T22:02:25.445Z,39.07
2018-05-06T22:04:53.785Z,39.18
2018-05-06T22:07:22.143Z,39.38
2018-05-06T22:09:50.577Z,39.49
2018-05-06T22:12:18.953Z,39.72
2018-05-06T22:14:47.282Z,39.30
2018-05-06T22:17:15.608Z,40.12
2018-05-06T22:19:43.964Z,40.17
2018-05-06T22:22:12.272Z,40.10
2018-05-06T22:24:40.618Z,40.53
2018-05-06T22:27:09.004Z,40.76
2018-05-06T22:29:37.450Z,40.07
2018-05-06T22:32:05.789Z,40.87
2018-05-06T22:34:34.077Z,40.13
2018-05-06T22:37:02.415Z,40.70
2018-05-06T22:39:30.729Z,40.59
2018-05-06T22:41:59.094Z,40.87
2018-05-06T22:44:27.397Z,40.90
2018-05-06T22:46:55.814Z,41.92
2018-05-06T22:49:24.108Z,41.80
2018-05-06T22:51:52.436Z,41.25
2018-05-06T22:54:20.852Z,41.55
2018-05-06T22:56:49.181Z,41.92
2018-05-06T22:59:17.502Z,41.71
2018-05-06T23:01:45.821Z,42.32
2018-05-06T23:04:14.190Z,42.47
2018-05-06T23:06:42.629Z,42.67
2018-05-06T23:09:11.109Z,42.75
2018-05-06T23:11:39.417Z,42.83
2018-05-06T23:14:07.780Z,42.49
2018-05-06T23:16:36.091Z,43.13
2018-05-06T23:19:04.447Z,43.55
2018-05-06T23:21:32.793Z,43.00
2018-05-06T23:24:01.133Z,42.65
2018-05-06T23:26:29.538Z,42.95
2018-05-06T23:28:57.809Z,43.11
2018-05-06T23:31:26.134Z,43.07
2018-05-06T23:33:54.529Z,43.74
2018-05-06T23:36:22.825Z,43.42
2018-05-06T23:38:51.160Z,43.18
2018-05-06T23:41:19.520Z,43.56
2018-05-06T23:43:47.967Z,43.74
2018-05-06T23:46:16.224Z,43.72
2018-05-06T23:48:45.568Z,43.35
2018-05-06T23:51:13.878Z,43.48
2018-05-06T23:53:42.193Z,43.51
2018-05-06T23:56:10.534Z,43.92
2018-05-06T23:58:38.829Z,43.88
